sensor_id;sensor_type;location;lat;lon;timestamp;pressure;altitude;pressure_sealevel;temperature;humidity
6218;BME280;3142;48.206;11.550;2023-04-25T00:01:39;95125.34;;;10.50;62.71
6218;BME280;3142;48.206;11.550;2023-04-25T00:04:07;95127.94;;;10.50;63.06
6218;BME280;3142;48.206;11.550;2023-04-25T00:06:36;95121.78;;;10.44;63.34
6218;BME280;3142;48.206;11.550;2023-04-25T00:09:02;95114.28;;;10.48;63.22
6218;BME280;3142;48.206;11.550;2023-04-25T00:11:28;95123.16;;;10.47;63.10
6218;BME280;3142;48.206;11.550;2023-04-25T00:13:56;95125.75;;;10.47;63.11
6218;BME280;3142;48.206;11.550;2023-04-25T00:16:22;95132.16;;;10.51;63.38
6218;BME280;3142;48.206;11.550;2023-04-25T00:18:49;95132.75;;;10.53;63.43
6218;BME280;3142;48.206;11.550;2023-04-25T00:21:19;95134.16;;;10.55;63.35
6218;BME280;3142;48.206;11.550;2023-04-25T00:23:47;95132.53;;;10.54;63.01
6218;BME280;3142;48.206;11.550;2023-04-25T00:26:13;95128.94;;;10.55;63.49
6218;BME280;3142;48.206;11.550;2023-04-25T00:28:40;95129.53;;;10.51;63.42
6218;BME280;3142;48.206;11.550;2023-04-25T00:31:06;95138.19;;;10.51;63.20
6218;BME280;3142;48.206;11.550;2023-04-25T00:33:33;95138.41;;;10.50;63.24
6218;BME280;3142;48.206;11.550;2023-04-25T00:35:59;95135.22;;;10.48;63.87
6218;BME280;3142;48.206;11.550;2023-04-25T00:38:26;95123.88;;;10.54;63.33
6218;BME280;3142;48.206;11.550;2023-04-25T00:40:54;95127.28;;;10.54;63.60
6218;BME280;3142;48.206;11.550;2023-04-25T00:43:20;95122.88;;;10.55;63.28
6218;BME280;3142;48.206;11.550;2023-04-25T00:45:47;95122.50;;;10.51;63.66
6218;BME280;3142;48.206;11.550;2023-04-25T00:48:15;95121.13;;;10.49;63.19
6218;BME280;3142;48.206;11.550;2023-04-25T00:50:43;95120.97;;;10.44;63.32
6218;BME280;3142;48.206;11.550;2023-04-25T00:53:15;95114.72;;;10.45;63.73
6218;BME280;3142;48.206;11.550;2023-04-25T00:55:42;95119.94;;;10.45;63.48
6218;BME280;3142;48.206;11.550;2023-04-25T00:58:10;95114.94;;;10.43;63.38
6218;BME280;3142;48.206;11.550;2023-04-25T01:00:36;95111.69;;;10.48;63.12
6218;BME280;3142;48.206;11.550;2023-04-25T01:03:03;95107.47;;;10.47;62.97
6218;BME280;3142;48.206;11.550;2023-04-25T01:05:29;95106.44;;;10.48;63.35
6218;BME280;3142;48.206;11.550;2023-04-25T01:07:56;95112.41;;;10.55;62.72
6218;BME280;3142;48.206;11.550;2023-04-25T01:10:23;95113.84;;;10.51;63.01
6218;BME280;3142;48.206;11.550;2023-04-25T01:12:49;95116.84;;;10.54;62.99
6218;BME280;3142;48.206;11.550;2023-04-25T01:15:17;95114.66;;;10.51;62.36
6218;BME280;3142;48.206;11.550;2023-04-25T01:17:44;95116.91;;;10.48;63.00
6218;BME280;3142;48.206;11.550;2023-04-25T01:20:11;95112.09;;;10.45;62.72
6218;BME280;3142;48.206;11.550;2023-04-25T01:22:39;95111.53;;;10.43;63.03
6218;BME280;3142;48.206;11.550;2023-04-25T01:25:07;95103.06;;;10.41;63.26
6218;BME280;3142;48.206;11.550;2023-04-25T01:27:33;95101.47;;;10.39;63.17
6218;BME280;3142;48.206;11.550;2023-04-25T01:30:02;95108.91;;;10.43;63.37
6218;BME280;3142;48.206;11.550;2023-04-25T01:32:29;95105.69;;;10.41;63.62
6218;BME280;3142;48.206;11.550;2023-04-25T01:35:03;95099.66;;;10.40;63.67
6218;BME280;3142;48.206;11.550;2023-04-25T01:37:34;95102.13;;;10.35;63.61
6218;BME280;3142;48.206;11.550;2023-04-25T01:40:03;95098.13;;;10.32;63.22
6218;BME280;3142;48.206;11.550;2023-04-25T01:42:30;95097.13;;;10.27;63.83
6218;BME280;3142;48.206;11.550;2023-04-25T01:44:57;95102.38;;;10.27;63.82
6218;BME280;3142;48.206;11.550;2023-04-25T01:47:23;95095.31;;;10.27;64.12
6218;BME280;3142;48.206;11.550;2023-04-25T01:49:50;95098.72;;;10.28;63.98
6218;BME280;3142;48.206;11.550;2023-04-25T01:52:17;95098.97;;;10.20;63.38
6218;BME280;3142;48.206;11.550;2023-04-25T01:54:43;95092.78;;;10.14;63.41
6218;BME280;3142;48.206;11.550;2023-04-25T01:57:11;95091.38;;;10.12;63.83
6218;BME280;3142;48.206;11.550;2023-04-25T01:59:38;95089.28;;;9.95;63.76
6218;BME280;3142;48.206;11.550;2023-04-25T02:02:06;95096.97;;;9.90;64.83
6218;BME280;3142;48.206;11.550;2023-04-25T02:04:32;95094.59;;;9.82;64.74
6218;BME280;3142;48.206;11.550;2023-04-25T02:06:59;95091.75;;;9.84;64.87
6218;BME280;3142;48.206;11.550;2023-04-25T02:09:25;95096.78;;;9.85;64.93
6218;BME280;3142;48.206;11.550;2023-04-25T02:11:52;95091.59;;;9.78;65.18
6218;BME280;3142;48.206;11.550;2023-04-25T02:14:20;95086.38;;;9.78;64.39
6218;BME280;3142;48.206;11.550;2023-04-25T02:16:46;95088.41;;;9.76;65.15
6218;BME280;3142;48.206;11.550;2023-04-25T02:19:13;95091.59;;;9.78;65.15
6218;BME280;3142;48.206;11.550;2023-04-25T02:21:39;95091.00;;;9.76;64.11
6218;BME280;3142;48.206;11.550;2023-04-25T02:24:07;95089.00;;;9.78;64.48
6218;BME280;3142;48.206;11.550;2023-04-25T02:26:33;95090.59;;;9.73;65.00
6218;BME280;3142;48.206;11.550;2023-04-25T02:29:00;95090.59;;;9.73;64.75
6218;BME280;3142;48.206;11.550;2023-04-25T02:31:28;95091.44;;;9.73;64.41
6218;BME280;3142;48.206;11.550;2023-04-25T02:33:54;95091.25;;;9.68;64.57
6218;BME280;3142;48.206;11.550;2023-04-25T02:36:20;95088.63;;;9.68;64.35
6218;BME280;3142;48.206;11.550;2023-04-25T02:38:47;95087.03;;;9.67;64.10
6218;BME280;3142;48.206;11.550;2023-04-25T02:41:13;95089.00;;;9.72;64.30
6218;BME280;3142;48.206;11.550;2023-04-25T02:43:40;95074.41;;;9.64;65.26
6218;BME280;3142;48.206;11.550;2023-04-25T02:46:07;95082.41;;;9.69;64.49
6218;BME280;3142;48.206;11.550;2023-04-25T02:48:35;95084.22;;;9.69;64.22
6218;BME280;3142;48.206;11.550;2023-04-25T02:51:01;95078.78;;;9.70;64.51
6218;BME280;3142;48.206;11.550;2023-04-25T02:53:28;95083.63;;;9.67;64.68
6218;BME280;3142;48.206;11.550;2023-04-25T02:55:54;95086.66;;;9.64;64.68
6218;BME280;3142;48.206;11.550;2023-04-25T02:58:23;95081.81;;;9.67;64.06
6218;BME280;3142;48.206;11.550;2023-04-25T03:00:50;95081.81;;;9.67;63.95
6218;BME280;3142;48.206;11.550;2023-04-25T03:03:16;95084.22;;;9.69;63.88
6218;BME280;3142;48.206;11.550;2023-04-25T03:05:48;95091.25;;;9.68;64.34
6218;BME280;3142;48.206;11.550;2023-04-25T03:08:15;95079.63;;;9.64;63.71
6218;BME280;3142;48.206;11.550;2023-04-25T03:10:42;95078.44;;;9.60;63.62
6218;BME280;3142;48.206;11.550;2023-04-25T03:13:08;95085.88;;;9.57;64.19
6218;BME280;3142;48.206;11.550;2023-04-25T03:15:36;95081.47;;;9.57;63.94
6218;BME280;3142;48.206;11.550;2023-04-25T03:18:02;95081.66;;;9.56;64.00
6218;BME280;3142;48.206;11.550;2023-04-25T03:20:29;95067.00;;;9.61;63.69
6218;BME280;3142;48.206;11.550;2023-04-25T03:22:57;95065.97;;;9.62;65.01
6218;BME280;3142;48.206;11.550;2023-04-25T03:25:23;95055.91;;;9.66;63.96
6218;BME280;3142;48.206;11.550;2023-04-25T03:27:50;95046.03;;;9.68;64.89
6218;BME280;3142;48.206;11.550;2023-04-25T03:30:17;95053.66;;;9.69;64.12
6218;BME280;3142;48.206;11.550;2023-04-25T03:32:43;95058.47;;;9.72;65.08
6218;BME280;3142;48.206;11.550;2023-04-25T03:35:10;95061.47;;;9.76;64.83
6218;BME280;3142;48.206;11.550;2023-04-25T03:37:36;95060.34;;;9.59;64.28
6218;BME280;3142;48.206;11.550;2023-04-25T03:40:05;95071.44;;;9.54;64.77
6218;BME280;3142;48.206;11.550;2023-04-25T03:42:32;95071.28;;;9.42;64.72
6218;BME280;3142;48.206;11.550;2023-04-25T03:44:59;95065.84;;;9.44;63.94
6218;BME280;3142;48.206;11.550;2023-04-25T03:47:25;95060.03;;;9.42;63.70
6218;BME280;3142;48.206;11.550;2023-04-25T03:49:52;95056.47;;;9.36;64.72
6218;BME280;3142;48.206;11.550;2023-04-25T03:52:18;95062.50;;;9.30;64.57
6218;BME280;3142;48.206;11.550;2023-04-25T03:54:45;95072.97;;;9.24;65.30
6218;BME280;3142;48.206;11.550;2023-04-25T03:57:12;95056.94;;;9.20;64.43
6218;BME280;3142;48.206;11.550;2023-04-25T03:59:39;95053.91;;;9.16;64.27
6218;BME280;3142;48.206;11.550;2023-04-25T04:02:05;95052.75;;;9.12;64.55
6218;BME280;3142;48.206;11.550;2023-04-25T04:04:32;95060.16;;;9.15;64.69
6218;BME280;3142;48.206;11.550;2023-04-25T04:06:58;95060.75;;;9.17;64.58
6218;BME280;3142;48.206;11.550;2023-04-25T04:09:25;95060.56;;;9.12;65.29
6218;BME280;3142;48.206;11.550;2023-04-25T04:11:52;95069.81;;;9.08;65.22
6218;BME280;3142;48.206;11.550;2023-04-25T04:14:20;95062.78;;;9.09;64.84
6218;BME280;3142;48.206;11.550;2023-04-25T04:16:47;95056.56;;;9.10;65.06
6218;BME280;3142;48.206;11.550;2023-04-25T04:19:13;95061.00;;;9.09;65.97
6218;BME280;3142;48.206;11.550;2023-04-25T04:21:40;95066.16;;;9.16;65.01
6218;BME280;3142;48.206;11.550;2023-04-25T04:24:06;95056.53;;;9.16;64.45
6218;BME280;3142;48.206;11.550;2023-04-25T04:26:33;95063.16;;;9.19;64.85
6218;BME280;3142;48.206;11.550;2023-04-25T04:29:00;95065.16;;;9.24;64.91
6218;BME280;3142;48.206;11.550;2023-04-25T04:31:29;95068.38;;;9.19;65.55
6218;BME280;3142;48.206;11.550;2023-04-25T04:33:55;95064.13;;;9.25;64.64
6218;BME280;3142;48.206;11.550;2023-04-25T04:36:22;95061.50;;;9.31;65.24
6218;BME280;3142;48.206;11.550;2023-04-25T04:38:51;95069.53;;;9.30;65.33
6218;BME280;3142;48.206;11.550;2023-04-25T04:41:17;95075.38;;;9.25;65.25
6218;BME280;3142;48.206;11.550;2023-04-25T04:43:44;95066.59;;;9.19;65.80
6218;BME280;3142;48.206;11.550;2023-04-25T04:46:11;95079.63;;;9.19;65.57
6218;BME280;3142;48.206;11.550;2023-04-25T04:48:39;95078.41;;;9.22;65.46
6218;BME280;3142;48.206;11.550;2023-04-25T04:51:06;95075.59;;;9.24;65.49
6218;BME280;3142;48.206;11.550;2023-04-25T04:53:32;95076.59;;;9.23;65.65
6218;BME280;3142;48.206;11.550;2023-04-25T04:55:59;95079.81;;;9.25;64.84
6218;BME280;3142;48.206;11.550;2023-04-25T04:58:25;95074.41;;;9.19;66.10
6218;BME280;3142;48.206;11.550;2023-04-25T05:00:54;95064.97;;;9.18;65.53
6218;BME280;3142;48.206;11.550;2023-04-25T05:03:21;95067.16;;;9.22;65.44
6218;BME280;3142;48.206;11.550;2023-04-25T05:05:48;95065.78;;;9.19;65.83
6218;BME280;3142;48.206;11.550;2023-04-25T05:08:15;95058.94;;;9.18;66.18
6218;BME280;3142;48.206;11.550;2023-04-25T05:10:41;95062.75;;;9.15;66.58
6218;BME280;3142;48.206;11.550;2023-04-25T05:13:08;95059.56;;;9.20;67.02
6218;BME280;3142;48.206;11.550;2023-04-25T05:15:34;95061.09;;;9.28;65.87
6218;BME280;3142;48.206;11.550;2023-04-25T05:18:01;95061.91;;;9.28;66.76
6218;BME280;3142;48.206;11.550;2023-04-25T05:20:28;95065.94;;;9.24;67.12
6218;BME280;3142;48.206;11.550;2023-04-25T05:22:55;95067.94;;;9.29;67.37
6218;BME280;3142;48.206;11.550;2023-04-25T05:25:22;95071.97;;;9.18;67.30
6218;BME280;3142;48.206;11.550;2023-04-25T05:27:48;95062.16;;;9.13;66.72
6218;BME280;3142;48.206;11.550;2023-04-25T05:30:16;95061.00;;;9.09;67.79
6218;BME280;3142;48.206;11.550;2023-04-25T05:32:42;95061.56;;;9.11;68.50
6218;BME280;3142;48.206;11.550;2023-04-25T05:35:09;95061.19;;;9.08;69.04
6218;BME280;3142;48.206;11.550;2023-04-25T05:37:35;95066.22;;;9.03;68.19
6218;BME280;3142;48.206;11.550;2023-04-25T05:40:04;95064.00;;;9.06;69.14
6218;BME280;3142;48.206;11.550;2023-04-25T05:42:31;95066.16;;;9.16;68.68
6218;BME280;3142;48.206;11.550;2023-04-25T05:44:58;95062.16;;;9.13;68.54
6218;BME280;3142;48.206;11.550;2023-04-25T05:47:24;95063.56;;;9.16;68.67
6218;BME280;3142;48.206;11.550;2023-04-25T05:49:51;95066.38;;;9.21;69.15
6218;BME280;3142;48.206;11.550;2023-04-25T05:52:18;95067.94;;;9.29;68.51
6218;BME280;3142;48.206;11.550;2023-04-25T05:54:44;95075.16;;;9.33;69.50
6218;BME280;3142;48.206;11.550;2023-04-25T05:57:20;95077.94;;;9.38;68.54
6218;BME280;3142;48.206;11.550;2023-04-25T05:59:46;95081.13;;;9.40;69.06
6218;BME280;3142;48.206;11.550;2023-04-25T06:02:13;95079.69;;;9.44;68.02
6218;BME280;3142;48.206;11.550;2023-04-25T06:04:39;95080.13;;;9.41;68.41
6218;BME280;3142;48.206;11.550;2023-04-25T06:07:06;95090.78;;;9.40;68.82
6218;BME280;3142;48.206;11.550;2023-04-25T06:09:32;95092.38;;;9.41;68.09
6218;BME280;3142;48.206;11.550;2023-04-25T06:11:58;95082.19;;;9.33;68.89
6218;BME280;3142;48.206;11.550;2023-04-25T06:14:27;95080.97;;;9.29;69.36
6218;BME280;3142;48.206;11.550;2023-04-25T06:16:54;95080.97;;;9.29;68.22
6218;BME280;3142;48.206;11.550;2023-04-25T06:19:20;95085.59;;;9.27;68.47
6218;BME280;3142;48.206;11.550;2023-04-25T06:21:47;95073.16;;;9.29;69.57
6218;BME280;3142;48.206;11.550;2023-04-25T06:24:13;95075.38;;;9.25;68.16
6218;BME280;3142;48.206;11.550;2023-04-25T06:26:39;95066.75;;;9.18;68.73
6218;BME280;3142;48.206;11.550;2023-04-25T06:29:06;95065.94;;;9.24;68.65
6218;BME280;3142;48.206;11.550;2023-04-25T06:31:34;95068.56;;;9.24;69.35
6218;BME280;3142;48.206;11.550;2023-04-25T06:34:00;95071.75;;;9.33;68.89
6218;BME280;3142;48.206;11.550;2023-04-25T06:36:27;95070.31;;;9.30;68.05
6218;BME280;3142;48.206;11.550;2023-04-25T06:38:54;95080.75;;;9.37;67.97
6218;BME280;3142;48.206;11.550;2023-04-25T06:41:20;95070.91;;;9.39;68.12
6218;BME280;3142;48.206;11.550;2023-04-25T06:43:47;95074.69;;;9.49;67.89
6218;BME280;3142;48.206;11.550;2023-04-25T06:46:14;95079.63;;;9.64;68.04
6218;BME280;3142;48.206;11.550;2023-04-25T06:48:41;95073.09;;;9.80;68.35
6218;BME280;3142;48.206;11.550;2023-04-25T06:51:08;95069.44;;;9.88;68.70
6218;BME280;3142;48.206;11.550;2023-04-25T06:53:34;95068.50;;;10.07;68.10
6218;BME280;3142;48.206;11.550;2023-04-25T06:56:01;95068.03;;;10.17;66.88
6218;BME280;3142;48.206;11.550;2023-04-25T06:58:28;95080.50;;;10.21;66.96
6218;BME280;3142;48.206;11.550;2023-04-25T07:00:55;95072.22;;;10.24;66.83
6218;BME280;3142;48.206;11.550;2023-04-25T07:03:21;95080.69;;;10.20;66.63
6218;BME280;3142;48.206;11.550;2023-04-25T07:05:49;95075.31;;;10.15;66.49
6218;BME280;3142;48.206;11.550;2023-04-25T07:08:15;95080.13;;;10.11;66.50
6218;BME280;3142;48.206;11.550;2023-04-25T07:10:42;95071.06;;;10.14;66.91
6218;BME280;3142;48.206;11.550;2023-04-25T07:13:08;95075.91;;;10.10;67.24
6218;BME280;3142;48.206;11.550;2023-04-25T07:15:35;95078.38;;;10.05;66.71
6218;BME280;3142;48.206;11.550;2023-04-25T07:18:02;95072.34;;;10.04;67.41
6218;BME280;3142;48.206;11.550;2023-04-25T07:20:28;95073.38;;;10.03;66.99
6218;BME280;3142;48.206;11.550;2023-04-25T07:22:57;95063.66;;;10.10;67.67
6218;BME280;3142;48.206;11.550;2023-04-25T07:25:24;95068.41;;;10.20;67.78
6218;BME280;3142;48.206;11.550;2023-04-25T07:27:50;95065.50;;;10.35;67.17
6218;BME280;3142;48.206;11.550;2023-04-25T07:30:17;95061.63;;;10.44;67.37
6218;BME280;3142;48.206;11.550;2023-04-25T07:32:43;95056.69;;;10.54;66.96
6218;BME280;3142;48.206;11.550;2023-04-25T07:35:10;95049.38;;;10.81;66.86
6218;BME280;3142;48.206;11.550;2023-04-25T07:37:36;95056.38;;;11.06;65.23
6218;BME280;3142;48.206;11.550;2023-04-25T07:40:05;95057.97;;;11.25;63.47
6218;BME280;3142;48.206;11.550;2023-04-25T07:42:32;95052.50;;;11.45;62.22
6218;BME280;3142;48.206;11.550;2023-04-25T07:44:59;95056.53;;;11.59;62.14
6218;BME280;3142;48.206;11.550;2023-04-25T07:47:26;95042.91;;;11.69;61.04
6218;BME280;3142;48.206;11.550;2023-04-25T07:49:52;95047.69;;;12.02;59.86
6218;BME280;3142;48.206;11.550;2023-04-25T07:52:19;95045.03;;;12.55;57.63
6218;BME280;3142;48.206;11.550;2023-04-25T07:54:46;95041.72;;;12.83;56.61
6218;BME280;3142;48.206;11.550;2023-04-25T07:57:14;95035.81;;;13.68;53.83
6218;BME280;3142;48.206;11.550;2023-04-25T07:59:42;95036.25;;;14.56;52.85
6218;BME280;3142;48.206;11.550;2023-04-25T08:02:08;95037.88;;;15.17;51.10
6218;BME280;3142;48.206;11.550;2023-04-25T08:04:35;95041.63;;;15.43;49.57
6218;BME280;3142;48.206;11.550;2023-04-25T08:07:01;95038.22;;;15.64;47.73
6218;BME280;3142;48.206;11.550;2023-04-25T08:09:28;95032.31;;;16.06;47.36
6218;BME280;3142;48.206;11.550;2023-04-25T08:11:59;95025.56;;;16.57;46.62
6218;BME280;3142;48.206;11.550;2023-04-25T08:14:28;95033.91;;;15.80;47.67
6218;BME280;3142;48.206;11.550;2023-04-25T08:17:00;95030.97;;;16.04;47.85
6218;BME280;3142;48.206;11.550;2023-04-25T08:19:26;95030.06;;;16.20;47.19
6218;BME280;3142;48.206;11.550;2023-04-25T08:21:53;95037.59;;;15.79;47.74
6218;BME280;3142;48.206;11.550;2023-04-25T08:24:20;95039.44;;;16.38;47.72
6218;BME280;3142;48.206;11.550;2023-04-25T08:26:47;95042.22;;;16.95;47.06
6218;BME280;3142;48.206;11.550;2023-04-25T08:29:13;95030.03;;;16.52;46.73
6218;BME280;3142;48.206;11.550;2023-04-25T08:31:41;95041.00;;;15.80;48.04
6218;BME280;3142;48.206;11.550;2023-04-25T08:34:07;95043.22;;;15.00;49.53
6218;BME280;3142;48.206;11.550;2023-04-25T08:36:34;95048.59;;;14.38;48.36
6218;BME280;3142;48.206;11.550;2023-04-25T08:39:01;95047.34;;;13.96;48.35
6218;BME280;3142;48.206;11.550;2023-04-25T08:41:27;95045.72;;;15.34;46.06
6218;BME280;3142;48.206;11.550;2023-04-25T08:43:55;95040.81;;;16.45;43.40
6218;BME280;3142;48.206;11.550;2023-04-25T08:46:23;95049.56;;;17.40;41.75
6218;BME280;3142;48.206;11.550;2023-04-25T08:48:53;95051.66;;;18.01;41.23
6218;BME280;3142;48.206;11.550;2023-04-25T08:51:22;95048.00;;;18.43;40.53
6218;BME280;3142;48.206;11.550;2023-04-25T08:53:51;95039.75;;;19.00;39.68
6218;BME280;3142;48.206;11.550;2023-04-25T08:56:18;95038.63;;;19.16;39.33
6218;BME280;3142;48.206;11.550;2023-04-25T08:58:48;95042.16;;;18.41;39.66
6218;BME280;3142;48.206;11.550;2023-04-25T09:01:14;95044.03;;;17.37;40.41
6218;BME280;3142;48.206;11.550;2023-04-25T09:03:42;95038.72;;;17.37;40.84
6218;BME280;3142;48.206;11.550;2023-04-25T09:06:10;95044.00;;;18.35;40.22
6218;BME280;3142;48.206;11.550;2023-04-25T09:08:37;95040.56;;;18.85;37.47
6218;BME280;3142;48.206;11.550;2023-04-25T09:11:05;95033.84;;;19.23;37.66
6218;BME280;3142;48.206;11.550;2023-04-25T09:13:32;95042.53;;;17.66;39.21
6218;BME280;3142;48.206;11.550;2023-04-25T09:15:58;95050.56;;;16.77;40.03
6218;BME280;3142;48.206;11.550;2023-04-25T09:18:26;95047.81;;;16.67;40.59
6218;BME280;3142;48.206;11.550;2023-04-25T09:20:53;95056.72;;;17.35;40.54
6218;BME280;3142;48.206;11.550;2023-04-25T09:23:22;95050.38;;;18.44;39.01
6218;BME280;3142;48.206;11.550;2023-04-25T09:25:50;95045.22;;;19.39;37.87
6218;BME280;3142;48.206;11.550;2023-04-25T09:28:23;95043.22;;;18.85;37.60
6218;BME280;3142;48.206;11.550;2023-04-25T09:30:49;95043.19;;;19.80;35.43
6218;BME280;3142;48.206;11.550;2023-04-25T09:33:16;95048.69;;;20.44;34.92
6218;BME280;3142;48.206;11.550;2023-04-25T09:35:43;95050.44;;;20.87;33.18
6218;BME280;3142;48.206;11.550;2023-04-25T09:38:10;95041.25;;;20.75;33.42
6218;BME280;3142;48.206;11.550;2023-04-25T09:40:42;95042.09;;;19.17;35.62
6218;BME280;3142;48.206;11.550;2023-04-25T09:43:10;95051.66;;;18.01;38.31
6218;BME280;3142;48.206;11.550;2023-04-25T09:45:43;95050.94;;;17.43;39.18
6218;BME280;3142;48.206;11.550;2023-04-25T09:48:11;95052.50;;;18.93;37.58
6218;BME280;3142;48.206;11.550;2023-04-25T09:50:37;95059.09;;;18.34;38.01
6218;BME280;3142;48.206;11.550;2023-04-25T09:53:04;95052.59;;;19.63;36.03
6218;BME280;3142;48.206;11.550;2023-04-25T09:55:32;95057.06;;;19.67;34.58
6218;BME280;3142;48.206;11.550;2023-04-25T09:58:04;95058.59;;;18.38;37.65
6218;BME280;3142;48.206;11.550;2023-04-25T10:00:32;95054.19;;;17.65;38.89
6218;BME280;3142;48.206;11.550;2023-04-25T10:03:00;95061.59;;;17.11;39.15
6218;BME280;3142;48.206;11.550;2023-04-25T10:05:30;95055.81;;;16.72;40.43
6218;BME280;3142;48.206;11.550;2023-04-25T10:07:59;95061.06;;;16.35;41.22
6218;BME280;3142;48.206;11.550;2023-04-25T10:10:29;95055.19;;;16.00;40.99
6218;BME280;3142;48.206;11.550;2023-04-25T10:13:03;95058.59;;;15.96;40.37
6218;BME280;3142;48.206;11.550;2023-04-25T10:15:31;95057.50;;;15.92;40.97
6218;BME280;3142;48.206;11.550;2023-04-25T10:17:58;95052.28;;;15.75;40.87
6218;BME280;3142;48.206;11.550;2023-04-25T10:20:25;95050.50;;;15.59;41.07
6218;BME280;3142;48.206;11.550;2023-04-25T10:22:54;95052.56;;;15.52;42.26
6218;BME280;3142;48.206;11.550;2023-04-25T10:25:23;95055.22;;;15.35;42.38
6218;BME280;3142;48.206;11.550;2023-04-25T10:27:50;95062.91;;;15.15;42.93
6218;BME280;3142;48.206;11.550;2023-04-25T10:30:18;95054.00;;;14.99;43.72
6218;BME280;3142;48.206;11.550;2023-04-25T10:32:45;95069.50;;;14.62;45.05
6218;BME280;3142;48.206;11.550;2023-04-25T10:35:14;95064.25;;;14.45;45.66
6218;BME280;3142;48.206;11.550;2023-04-25T10:38:03;95067.47;;;14.18;46.06
6218;BME280;3142;48.206;11.550;2023-04-25T10:40:31;95079.38;;;13.92;47.66
6218;BME280;3142;48.206;11.550;2023-04-25T10:43:36;95078.94;;;13.55;48.11
6218;BME280;3142;48.206;11.550;2023-04-25T10:46:12;95082.31;;;13.39;47.77
6218;BME280;3142;48.206;11.550;2023-04-25T10:48:45;95097.19;;;13.22;48.74
6218;BME280;3142;48.206;11.550;2023-04-25T10:51:19;95103.38;;;13.04;49.08
6218;BME280;3142;48.206;11.550;2023-04-25T10:53:47;95115.00;;;12.85;51.04
6218;BME280;3142;48.206;11.550;2023-04-25T10:56:17;95114.91;;;12.91;51.22
6218;BME280;3142;48.206;11.550;2023-04-25T10:58:44;95124.03;;;12.89;53.28
6218;BME280;3142;48.206;11.550;2023-04-25T11:01:15;95131.22;;;12.82;53.85
6218;BME280;3142;48.206;11.550;2023-04-25T11:03:45;95130.97;;;12.83;53.82
6218;BME280;3142;48.206;11.550;2023-04-25T11:06:22;95138.28;;;12.69;54.43
6218;BME280;3142;48.206;11.550;2023-04-25T11:08:50;95144.63;;;12.50;56.34
6218;BME280;3142;48.206;11.550;2023-04-25T11:11:17;95148.13;;;12.32;57.28
6218;BME280;3142;48.206;11.550;2023-04-25T11:13:44;95146.06;;;12.23;57.49
6218;BME280;3142;48.206;11.550;2023-04-25T11:16:15;95150.03;;;12.25;57.51
6218;BME280;3142;48.206;11.550;2023-04-25T11:18:41;95152.00;;;12.30;57.65
6218;BME280;3142;48.206;11.550;2023-04-25T11:21:08;95154.84;;;12.28;58.06
6218;BME280;3142;48.206;11.550;2023-04-25T11:23:35;95156.13;;;12.37;56.62
6218;BME280;3142;48.206;11.550;2023-04-25T11:26:01;95154.41;;;12.43;56.45
6218;BME280;3142;48.206;11.550;2023-04-25T11:28:28;95153.53;;;12.49;55.71
6218;BME280;3142;48.206;11.550;2023-04-25T11:30:55;95156.84;;;12.56;55.05
6218;BME280;3142;48.206;11.550;2023-04-25T11:33:25;95161.84;;;12.46;55.42
6218;BME280;3142;48.206;11.550;2023-04-25T11:35:53;95166.50;;;12.44;57.21
6218;BME280;3142;48.206;11.550;2023-04-25T11:38:20;95162.09;;;12.56;57.12
6218;BME280;3142;48.206;11.550;2023-04-25T11:40:49;95163.03;;;12.73;57.03
6218;BME280;3142;48.206;11.550;2023-04-25T11:43:17;95167.63;;;12.90;56.60
6218;BME280;3142;48.206;11.550;2023-04-25T11:45:46;95166.94;;;12.94;55.26
6218;BME280;3142;48.206;11.550;2023-04-25T11:48:12;95167.28;;;12.98;55.26
6218;BME280;3142;48.206;11.550;2023-04-25T11:50:40;95172.78;;;13.08;54.16
6218;BME280;3142;48.206;11.550;2023-04-25T11:53:07;95168.91;;;13.11;54.42
6218;BME280;3142;48.206;11.550;2023-04-25T11:55:34;95176.66;;;13.05;53.68
6218;BME280;3142;48.206;11.550;2023-04-25T11:58:01;95184.75;;;12.92;54.13
6218;BME280;3142;48.206;11.550;2023-04-25T12:00:29;95209.13;;;12.69;55.80
6218;BME280;3142;48.206;11.550;2023-04-25T12:02:56;95219.78;;;12.14;57.93
6218;BME280;3142;48.206;11.550;2023-04-25T12:05:24;95221.22;;;11.80;61.75
6218;BME280;3142;48.206;11.550;2023-04-25T12:07:52;95224.13;;;11.47;64.39
6218;BME280;3142;48.206;11.550;2023-04-25T12:10:20;95233.44;;;11.25;66.03
6218;BME280;3142;48.206;11.550;2023-04-25T12:12:48;95225.25;;;11.15;66.15
6218;BME280;3142;48.206;11.550;2023-04-25T12:15:16;95216.41;;;11.09;66.07
6218;BME280;3142;48.206;11.550;2023-04-25T12:17:45;95220.72;;;11.04;66.86
6218;BME280;3142;48.206;11.550;2023-04-25T12:20:13;95222.53;;;11.03;66.58
6218;BME280;3142;48.206;11.550;2023-04-25T12:22:41;95213.41;;;10.87;66.71
6218;BME280;3142;48.206;11.550;2023-04-25T12:25:11;95221.25;;;10.87;67.62
6218;BME280;3142;48.206;11.550;2023-04-25T12:27:38;95214.56;;;10.91;67.74
6218;BME280;3142;48.206;11.550;2023-04-25T12:30:07;95217.41;;;10.90;67.67
6218;BME280;3142;48.206;11.550;2023-04-25T12:32:34;95215.78;;;10.89;67.42
6218;BME280;3142;48.206;11.550;2023-04-25T12:35:00;95219.22;;;10.89;66.71
6218;BME280;3142;48.206;11.550;2023-04-25T12:37:28;95219.56;;;10.93;67.49
6218;BME280;3142;48.206;11.550;2023-04-25T12:39:55;95221.75;;;10.96;67.90
6218;BME280;3142;48.206;11.550;2023-04-25T12:42:22;95223.47;;;11.09;68.85
6218;BME280;3142;48.206;11.550;2023-04-25T12:44:49;95228.81;;;11.20;69.08
6218;BME280;3142;48.206;11.550;2023-04-25T12:47:15;95228.19;;;11.25;68.34
6218;BME280;3142;48.206;11.550;2023-04-25T12:49:42;95232.81;;;11.23;68.13
6218;BME280;3142;48.206;11.550;2023-04-25T12:52:08;95239.56;;;11.12;68.52
6218;BME280;3142;48.206;11.550;2023-04-25T12:54:35;95243.03;;;11.06;68.24
6218;BME280;3142;48.206;11.550;2023-04-25T12:57:02;95245.06;;;11.04;67.37
6218;BME280;3142;48.206;11.550;2023-04-25T12:59:29;95248.50;;;11.05;66.84
6218;BME280;3142;48.206;11.550;2023-04-25T13:01:56;95245.94;;;10.98;65.78
6218;BME280;3142;48.206;11.550;2023-04-25T13:04:22;95244.38;;;10.90;66.01
6218;BME280;3142;48.206;11.550;2023-04-25T13:06:49;95248.38;;;10.93;66.80
6218;BME280;3142;48.206;11.550;2023-04-25T13:09:15;95249.38;;;10.92;67.65
6218;BME280;3142;48.206;11.550;2023-04-25T13:11:42;95260.97;;;10.78;67.84
6218;BME280;3142;48.206;11.550;2023-04-25T13:14:08;95253.09;;;10.78;68.28
6218;BME280;3142;48.206;11.550;2023-04-25T13:16:36;95267.44;;;10.75;68.83